createdAt,value
2023-01-11T00:02:05.717Z,62.73
2023-01-11T00:07:08.027Z,63.01
2023-01-11T00:12:12.631Z,62.93
2023-01-11T00:17:14.931Z,63.07
2023-01-11T00:22:17.257Z,62.67
2023-01-11T00:27:19.622Z,62.34
2023-01-11T00:32:21.915Z,62.46
2023-01-11T00:37:24.171Z,62.18
2023-01-11T00:42:44.874Z,62.35
2023-01-11T00:48:00.576Z,62.21
2023-01-11T00:53:03.892Z,62.01
2023-01-11T00:58:09.190Z,61.72
2023-01-11T01:03:11.619Z,61.84
2023-01-11T01:08:13.944Z,61.91
2023-01-11T01:13:34.589Z,61.84
2023-01-11T01:18:37.864Z,61.65
2023-01-11T01:23:40.093Z,61.86
2023-01-11T01:28:42.300Z,61.65
2023-01-11T01:33:44.550Z,61.70
2023-01-11T01:38:47.185Z,61.41
2023-01-11T01:43:55.037Z,61.05
2023-01-11T01:49:00.161Z,61.19
2023-01-11T01:54:07.797Z,60.86
2023-01-11T01:59:13.369Z,61.16
2023-01-11T02:04:41.219Z,60.97
2023-01-11T02:10:05.157Z,60.94
2023-01-11T02:15:11.889Z,61.03
2023-01-11T02:20:43.307Z,60.72
2023-01-11T02:25:54.446Z,61.34
2023-01-11T02:31:08.549Z,60.67
2023-01-11T02:36:41.672Z,60.96
2023-01-11T02:42:09.140Z,60.87
2023-01-11T02:47:18.634Z,60.76
2023-01-11T02:52:27.266Z,60.61
2023-01-11T02:57:30.077Z,60.92
2023-01-11T03:02:32.518Z,60.53
2023-01-11T03:07:40.926Z,60.57
2023-01-11T03:13:02.802Z,60.31
2023-01-11T03:18:31.230Z,60.72
2023-01-11T03:23:48.182Z,60.14
2023-01-11T03:28:57.642Z,60.37
2023-01-11T03:33:59.946Z,60.68
2023-01-11T03:39:28.427Z,59.90
2023-01-11T03:44:35.457Z,60.37
2023-01-11T03:49:47.696Z,60.32
2023-01-11T03:54:49.963Z,60.63
2023-01-11T03:59:52.270Z,60.63
2023-01-11T04:04:54.751Z,60.46
2023-01-11T04:09:58.823Z,60.44
2023-01-11T04:15:03.436Z,60.48
2023-01-11T04:20:07.259Z,60.42
2023-01-11T04:25:10.015Z,60.17
2023-01-11T04:30:12.557Z,60.14
2023-01-11T04:35:14.928Z,60.32
2023-01-11T04:40:17.578Z,60.24
2023-01-11T04:45:20.172Z,60.08
2023-01-11T04:50:23.714Z,60.02
2023-01-11T04:55:25.955Z,59.81
2023-01-11T05:00:28.236Z,60.14
2023-01-11T05:05:30.570Z,60.37
2023-01-11T05:10:32.930Z,60.23
2023-01-11T05:15:35.266Z,60.27
2023-01-11T05:20:37.522Z,60.48
2023-01-11T05:25:39.775Z,60.59
2023-01-11T05:30:42.005Z,60.58
2023-01-11T05:35:49.996Z,60.52
2023-01-11T05:41:03.294Z,60.71
2023-01-11T05:46:05.780Z,60.95
2023-01-11T05:51:09.429Z,60.81
2023-01-11T05:56:11.806Z,61.51
2023-01-11T06:01:14.315Z,61.05
2023-01-11T06:06:17.456Z,61.06
2023-01-11T06:11:19.828Z,61.36
2023-01-11T06:16:22.667Z,61.37
2023-01-11T06:21:28.429Z,61.47
2023-01-11T06:26:30.664Z,61.58
2023-01-11T06:31:34.676Z,61.41
2023-01-11T06:36:37.263Z,61.69
2023-01-11T06:41:39.523Z,61.77
2023-01-11T06:46:41.914Z,61.85
2023-01-11T06:51:44.257Z,62.04
2023-01-11T06:56:46.553Z,61.87
2023-01-11T07:01:51.688Z,61.96
2023-01-11T07:06:56.895Z,61.86
2023-01-11T07:11:59.197Z,62.14
2023-01-11T07:17:01.876Z,62.14
2023-01-11T07:22:07.104Z,62.10
2023-01-11T07:27:09.423Z,62.22
2023-01-11T07:32:11.704Z,62.41
2023-01-11T07:37:29.003Z,62.40
2023-01-11T07:42:50.921Z,62.34
2023-01-11T07:47:53.458Z,62.42
2023-01-11T07:52:56.027Z,62.72
2023-01-11T07:57:59.571Z,62.52
2023-01-11T08:03:08.583Z,62.82
2023-01-11T08:08:11.550Z,62.72
2023-01-11T08:13:37.374Z,62.96
2023-01-11T08:18:39.621Z,62.83
2023-01-11T08:23:41.864Z,62.95
2023-01-11T08:28:44.845Z,63.16
2023-01-11T08:33:47.418Z,62.81
2023-01-11T08:38:49.854Z,62.73
2023-01-11T08:43:52.356Z,63.11
2023-01-11T08:48:54.593Z,63.05
2023-01-11T08:53:56.788Z,63.13
2023-01-11T08:58:59.127Z,63.04
2023-01-11T09:04:02.385Z,62.94
2023-01-11T09:09:05.021Z,62.84
2023-01-11T09:14:07.328Z,62.93
2023-01-11T09:19:09.608Z,63.13
2023-01-11T09:24:11.963Z,63.17
2023-01-11T09:29:14.526Z,63.29
2023-01-11T09:34:16.992Z,63.58
2023-01-11T09:39:22.743Z,63.50
2023-01-11T09:44:27.061Z,63.62
2023-01-11T09:49:32.207Z,64.02
2023-01-11T09:54:35.271Z,63.88
2023-01-11T09:59:48.791Z,63.54
2023-01-11T10:05:23.681Z,63.79
2023-01-11T10:18:29.104Z,63.69
2023-01-11T10:21:49.590Z,63.41
2023-01-11T10:26:57.014Z,63.28
2023-01-11T10:32:02.704Z,63.53
2023-01-11T10:37:33.616Z,63.44
2023-01-11T10:42:44.460Z,63.39
2023-01-11T10:48:01.873Z,63.37
2023-01-11T10:53:19.424Z,63.17
2023-01-11T10:58:42.231Z,63.18
2023-01-11T11:03:46.678Z,63.25
2023-01-11T11:08:57.949Z,63.18
2023-01-11T11:14:13.205Z,63.48
2023-01-11T11:19:18.098Z,63.30
2023-01-11T11:24:38.103Z,63.55
2023-01-11T11:29:50.340Z,63.25
2023-01-11T11:34:53.543Z,63.20
2023-01-11T11:39:56.485Z,63.35
2023-01-11T11:45:11.099Z,63.47
2023-01-11T11:50:42.421Z,63.68
2023-01-11T11:55:45.348Z,63.61
2023-01-11T12:00:52.137Z,63.86
2023-01-11T12:06:03.051Z,64.07
2023-01-11T12:11:07.204Z,64.35
2023-01-11T12:16:23.245Z,64.75
2023-01-11T12:21:31.918Z,65.09
2023-01-11T12:26:39.142Z,65.07
2023-01-11T12:31:53.994Z,65.48
2023-01-11T12:37:11.560Z,65.49
2023-01-11T12:42:32.079Z,65.88
2023-01-11T12:47:46.872Z,65.92
2023-01-11T12:52:52.436Z,66.02
2023-01-11T12:58:09.271Z,66.48
2023-01-11T13:03:34.413Z,66.62
2023-01-11T13:08:36.632Z,66.37
2023-01-11T13:14:11.047Z,66.81
2023-01-11T13:19:22.394Z,66.58
2023-01-11T13:24:27.623Z,66.97
2023-01-11T13:29:37.316Z,67.08
2023-01-11T13:34:42.599Z,67.09
2023-01-11T13:39:52.787Z,67.33
2023-01-11T13:45:25.909Z,67.50
2023-01-11T13:50:42.815Z,67.42
2023-01-11T13:56:16.510Z,67.71
2023-01-11T14:01:26.100Z,67.54
2023-01-11T14:06:42.768Z,68.09
2023-01-11T14:12:22.341Z,68.31
2023-01-11T14:17:29.625Z,67.80
2023-01-11T14:22:39.712Z,68.15
2023-01-11T14:28:00.994Z,68.53
2023-01-11T14:33:33.695Z,68.65
2023-01-11T14:39:08.834Z,68.55
2023-01-11T14:44:37.512Z,68.40
2023-01-11T14:50:08.419Z,68.34
2023-01-11T14:55:22.510Z,67.80
2023-01-11T15:00:24.700Z,67.81
2023-01-11T15:05:30.186Z,67.61
2023-01-11T15:10:33.082Z,67.43
2023-01-11T15:15:56.007Z,67.36
2023-01-11T15:21:06.657Z,67.34
2023-01-11T15:26:12.367Z,67.13
2023-01-11T15:31:34.008Z,67.38
2023-01-11T15:37:04.743Z,67.29
2023-01-11T15:42:16.117Z,67.19
2023-01-11T15:47:55.956Z,67.13
2023-01-11T15:53:40.038Z,67.48
2023-01-11T15:59:04.178Z,67.25
2023-01-11T16:04:34.600Z,67.44
2023-01-11T16:10:08.267Z,67.41
2023-01-11T16:15:29.247Z,67.47
2023-01-11T16:20:31.792Z,67.72
2023-01-11T16:25:41.741Z,67.94
2023-01-11T16:30:44.307Z,67.95
2023-01-11T16:35:46.580Z,67.80
2023-01-11T16:40:53.608Z,68.06
2023-01-11T16:45:56.408Z,67.96
2023-01-11T16:51:20.248Z,68.12
2023-01-11T16:56:23.978Z,67.86
2023-01-11T17:01:26.582Z,67.95
2023-01-11T17:06:37.421Z,68.00
2023-01-11T17:11:46.962Z,67.85
2023-01-11T17:16:51.633Z,67.60
2023-01-11T17:21:59.022Z,67.57
2023-01-11T17:27:02.591Z,67.56
2023-01-11T17:32:08.786Z,67.48
2023-01-11T17:37:15.722Z,67.03
2023-01-11T17:42:37.397Z,67.00
2023-01-11T17:47:45.777Z,66.81
2023-01-11T17:52:54.689Z,66.80
2023-01-11T17:58:09.957Z,66.32
2023-01-11T18:03:16.154Z,66.61
2023-01-11T18:08:22.011Z,66.23
2023-01-11T18:13:34.259Z,65.96
2023-01-11T18:18:42.514Z,66.20
2023-01-11T18:23:44.769Z,65.96
2023-01-11T18:28:47.167Z,66.16
2023-01-11T18:33:49.507Z,65.89
2023-01-11T18:38:51.872Z,66.12
2023-01-11T18:43:54.609Z,65.95
2023-01-11T18:48:56.954Z,65.83
2023-01-11T18:54:02.429Z,65.93
2023-01-11T18:59:04.786Z,66.02
2023-01-11T19:04:07.925Z,65.76
2023-01-11T19:09:10.287Z,65.88
2023-01-11T19:14:12.751Z,66.25
2023-01-11T19:19:15.191Z,66.08
2023-01-11T19:24:17.624Z,66.43
2023-01-11T19:29:25.070Z,66.35
2023-01-11T19:34:27.351Z,66.60
2023-01-11T19:39:29.638Z,66.53
2023-01-11T19:44:31.921Z,66.59
2023-01-11T19:49:34.297Z,66.55
2023-01-11T19:54:36.654Z,66.71
2023-01-11T19:59:39.256Z,66.80
2023-01-11T20:04:42.097Z,67.03
2023-01-11T20:09:44.488Z,67.05
2023-01-11T20:14:46.978Z,67.30
2023-01-11T20:19:54.812Z,67.57
2023-01-11T20:24:57.120Z,67.77
2023-01-11T20:29:59.434Z,67.46
2023-01-11T20:35:01.735Z,67.63
2023-01-11T20:40:08.205Z,67.77
2023-01-11T20:45:10.973Z,67.52
2023-01-11T20:50:13.311Z,67.46
2023-01-11T20:55:15.988Z,67.33
2023-01-11T21:00:19.886Z,67.48
2023-01-11T21:05:22.161Z,67.40
2023-01-11T21:10:25.210Z,67.24
2023-01-11T21:15:27.513Z,67.27
2023-01-11T21:20:29.823Z,67.41
2023-01-11T21:25:34.200Z,67.44
2023-01-11T21:30:36.529Z,67.39
2023-01-11T21:35:38.867Z,67.51
2023-01-11T21:40:41.128Z,67.72
2023-01-11T21:45:43.394Z,67.86
2023-01-11T21:50:46.207Z,68.00
2023-01-11T21:55:49.843Z,67.90
2023-01-11T22:00:52.174Z,68.10
2023-01-11T22:06:00.520Z,68.06
2023-01-11T22:11:04.919Z,68.26
2023-01-11T22:16:09.722Z,68.04
2023-01-11T22:21:13.216Z,68.21
2023-01-11T22:26:18.006Z,68.25
2023-01-11T22:31:21.121Z,68.18
2023-01-11T22:36:25.269Z,68.01
2023-01-11T22:41:27.904Z,67.97
2023-01-11T22:46:30.362Z,67.92
2023-01-11T22:51:33.072Z,67.70
2023-01-11T22:56:35.332Z,67.64
2023-01-11T23:01:39.659Z,67.49
2023-01-11T23:06:43.021Z,67.66
2023-01-11T23:12:04.444Z,67.47
2023-01-11T23:17:09.406Z,67.34
2023-01-11T23:22:11.768Z,67.45
2023-01-11T23:27:14.153Z,67.29
2023-01-11T23:32:16.449Z,67.34
2023-01-11T23:37:18.671Z,67.21
2023-01-11T23:42:26.845Z,67.18
2023-01-11T23:47:31.697Z,66.79
2023-01-11T23:52:33.978Z,67.04
2023-01-11T23:57:36.184Z,66.93
